Boudicca — WDI2027 — position and weather

sailwx.info

Track history (hours):
 
Tides and Currents Weather Stations Pressure Air Temp Water Temp Dewpoint Dewpoint Depression Visibility Wind Speed Wind Dir Waves Ship Positions

Boudicca

Owner: Moyer, Catherine, Redwood City, CA. More information available from US FCC via Universal Licensing System and Coast Guard Vessel Documentation Center.

Last reported at 2017-Nov-25 21:32 UTC. Time now 2018-Feb-24 10:00 UTC.
Position N 37°35' W 122°15'.
Warning: this ship's position is months out of date.

Length 10 m.

Type: Sailing vessel. MMSI: 367673970.

Date/timePositionNaut miles runAvg speedWind from/ knotsBaromVisibWave heightAir tempDewpointWater temp
2017-Nov-25 21:32N 37°35' W 122°15'1 7.4
2017-Nov-25 21:23N 37°35' W 122°16'3 7.0
2017-Nov-25 21:00N 37°38' W 122°18'4 7.1
2017-Nov-25 20:30N 37°41' W 122°20'4 7.2
2017-Nov-25 20:00N 37°44' W 122°21'3 5.5
2017-Nov-25 19:29N 37°47' W 122°23'2 3.7
2017-Nov-25 19:00N 37°48' W 122°24'2 3.1
2017-Nov-25 18:29N 37°48' W 122°26'2 4.6
2017-Nov-25 18:00N 37°50' W 122°27'  
2017-Nov-22 22:06N 37°52' W 122°26'0 0.0
2017-Nov-22 22:00N 37°52' W 122°26'1 2.4
2017-Nov-22 21:27N 37°51' W 122°26'3 6.5
2017-Nov-22 21:00N 37°48' W 122°24'  
Track history (hours):
 
Tides and Currents Weather Stations Pressure Air Temp Water Temp Dewpoint Dewpoint Depression Visibility Wind Speed Wind Dir Waves Ship Positions

Boudicca

Owner: Moyer, Catherine, Redwood City, CA. More information available from US FCC via Universal Licensing System and Coast Guard Vessel Documentation Center.

Last reported at 2017-Nov-25 21:32 UTC. Time now 2018-Feb-24 10:00 UTC.
Position N 37°35' W 122°15'.
Warning: this ship's position is months out of date.

Length 10 m.

Type: Sailing vessel. MMSI: 367673970.

Date/timePositionNaut miles runAvg speedWind from/ knotsBaromVisibWave heightAir tempDewpointWater temp
2017-Nov-25 21:32N 37°35' W 122°15'1 7.4
2017-Nov-25 21:23N 37°35' W 122°16'3 7.0
2017-Nov-25 21:00N 37°38' W 122°18'4 7.1
2017-Nov-25 20:30N 37°41' W 122°20'4 7.2
2017-Nov-25 20:00N 37°44' W 122°21'3 5.5
2017-Nov-25 19:29N 37°47' W 122°23'2 3.7
2017-Nov-25 19:00N 37°48' W 122°24'2 3.1
2017-Nov-25 18:29N 37°48' W 122°26'2 4.6
2017-Nov-25 18:00N 37°50' W 122°27'  
2017-Nov-22 22:06N 37°52' W 122°26'0 0.0
2017-Nov-22 22:00N 37°52' W 122°26'1 2.4
2017-Nov-22 21:27N 37°51' W 122°26'3 6.5
2017-Nov-22 21:00N 37°48' W 122°24'  

Dump ship's entire track history